sensor_id;sensor_type;location;lat;lon;timestamp;pressure;altitude;pressure_sealevel;temperature;humidity
65800;BME280;52544;48.116;11.660;2023-01-28T00:00:05;95975.34;;;-1.27;100.00
65800;BME280;52544;48.116;11.660;2023-01-28T00:02:35;95980.41;;;-1.24;100.00
65800;BME280;52544;48.116;11.660;2023-01-28T00:05:01;95971.91;;;-1.29;100.00
65800;BME280;52544;48.116;11.660;2023-01-28T00:07:26;95973.72;;;-1.31;100.00
65800;BME280;52544;48.116;11.660;2023-01-28T00:09:52;95974.66;;;-1.34;100.00
65800;BME280;52544;48.116;11.660;2023-01-28T00:12:17;95975.72;;;-1.39;100.00
65800;BME280;52544;48.116;11.660;2023-01-28T00:14:43;95982.63;;;-1.38;100.00
65800;BME280;52544;48.116;11.660;2023-01-28T00:17:10;95968.81;;;-1.40;100.00
65800;BME280;52544;48.116;11.660;2023-01-28T00:19:36;95962.63;;;-1.36;100.00
65800;BME280;52544;48.116;11.660;2023-01-28T00:22:01;95975.72;;;-1.39;100.00
65800;BME280;52544;48.116;11.660;2023-01-28T00:24:28;95977.34;;;-1.37;100.00
65800;BME280;52544;48.116;11.660;2023-01-28T00:26:54;95977.47;;;-1.40;100.00
65800;BME280;52544;48.116;11.660;2023-01-28T00:29:19;95967.97;;;-1.41;100.00
65800;BME280;52544;48.116;11.660;2023-01-28T00:31:45;95974.88;;;-1.40;100.00
65800;BME280;52544;48.116;11.660;2023-01-28T00:34:10;95975.56;;;-1.35;100.00
65800;BME280;52544;48.116;11.660;2023-01-28T00:36:35;95967.78;;;-1.35;100.00
65800;BME280;52544;48.116;11.660;2023-01-28T00:39:04;95977.25;;;-1.34;100.00
65800;BME280;52544;48.116;11.660;2023-01-28T00:41:30;95979.94;;;-1.37;100.00
65800;BME280;52544;48.116;11.660;2023-01-28T00:43:56;95977.56;;;-1.43;100.00
65800;BME280;52544;48.116;11.660;2023-01-28T00:46:22;95973.28;;;-1.44;100.00
65800;BME280;52544;48.116;11.660;2023-01-28T00:48:49;95976.75;;;-1.45;100.00
65800;BME280;52544;48.116;11.660;2023-01-28T00:51:16;95977.56;;;-1.43;100.00
65800;BME280;52544;48.116;11.660;2023-01-28T00:53:42;95968.94;;;-1.43;100.00
65800;BME280;52544;48.116;11.660;2023-01-28T00:56:12;95967.97;;;-1.41;100.00
65800;BME280;52544;48.116;11.660;2023-01-28T00:58:37;95971.38;;;-1.39;100.00
65800;BME280;52544;48.116;11.660;2023-01-28T01:01:11;95966.88;;;-1.34;100.00
65800;BME280;52544;48.116;11.660;2023-01-28T01:03:37;95972.31;;;-1.41;100.00
65800;BME280;52544;48.116;11.660;2023-01-28T01:06:03;95978.19;;;-1.36;100.00
65800;BME280;52544;48.116;11.660;2023-01-28T01:08:28;95975.56;;;-1.35;100.00
65800;BME280;52544;48.116;11.660;2023-01-28T01:11:02;95976.59;;;-1.40;100.00
65800;BME280;52544;48.116;11.660;2023-01-28T01:13:28;95983.53;;;-1.41;100.00
65800;BME280;52544;48.116;11.660;2023-01-28T01:18:33;95981.78;;;-1.40;100.00
65800;BME280;52544;48.116;11.660;2023-01-28T01:20:59;95984.31;;;-1.37;100.00
65800;BME280;52544;48.116;11.660;2023-01-28T01:23:25;95986.13;;;-1.39;100.00
65800;BME280;52544;48.116;11.660;2023-01-28T01:25:51;95980.91;;;-1.39;100.00
65800;BME280;52544;48.116;11.660;2023-01-28T01:28:17;95980.94;;;-1.41;100.00
65800;BME280;52544;48.116;11.660;2023-01-28T01:30:42;95980.16;;;-1.43;100.00
65800;BME280;52544;48.116;11.660;2023-01-28T01:33:08;95979.09;;;-1.37;100.00
65800;BME280;52544;48.116;11.660;2023-01-28T01:35:33;95980.91;;;-1.39;100.00
65800;BME280;52544;48.116;11.660;2023-01-28T01:37:58;95986.97;;;-1.39;100.00
65800;BME280;52544;48.116;11.660;2023-01-28T01:40:24;95985.28;;;-1.41;100.00
65800;BME280;52544;48.116;11.660;2023-01-28T01:42:49;95983.66;;;-1.44;100.00
65800;BME280;52544;48.116;11.660;2023-01-28T01:45:15;95994.84;;;-1.42;100.00
65800;BME280;52544;48.116;11.660;2023-01-28T01:47:46;95994.91;;;-1.43;100.00
65800;BME280;52544;48.116;11.660;2023-01-28T01:50:38;95997.44;;;-1.42;100.00
65800;BME280;52544;48.116;11.660;2023-01-28T01:53:15;95999.25;;;-1.44;100.00
65800;BME280;52544;48.116;11.660;2023-01-28T01:55:46;95989.59;;;-1.40;100.00
65800;BME280;52544;48.116;11.660;2023-01-28T01:58:14;95998.28;;;-1.41;100.00
65800;BME280;52544;48.116;11.660;2023-01-28T02:00:41;95997.59;;;-1.46;100.00
65800;BME280;52544;48.116;11.660;2023-01-28T02:03:08;95999.34;;;-1.47;100.00
65800;BME280;52544;48.116;11.660;2023-01-28T02:05:34;95998.41;;;-1.44;100.00
65800;BME280;52544;48.116;11.660;2023-01-28T02:08:00;96000.94;;;-1.43;100.00
65800;BME280;52544;48.116;11.660;2023-01-28T02:10:49;96007.91;;;-1.45;100.00
65800;BME280;52544;48.116;11.660;2023-01-28T02:13:18;96003.72;;;-1.49;100.00
65800;BME280;52544;48.116;11.660;2023-01-28T02:15:45;96004.53;;;-1.47;100.00
65800;BME280;52544;48.116;11.660;2023-01-28T02:18:10;96006.31;;;-1.49;100.00
65800;BME280;52544;48.116;11.660;2023-01-28T02:26:22;96016.81;;;-1.52;100.00
65800;BME280;52544;48.116;11.660;2023-01-28T02:29:05;96013.31;;;-1.51;100.00
65800;BME280;52544;48.116;11.660;2023-01-28T02:31:46;96010.63;;;-1.48;100.00
65800;BME280;52544;48.116;11.660;2023-01-28T02:36:57;96005.31;;;-1.45;100.00
65800;BME280;52544;48.116;11.660;2023-01-28T02:39:28;96004.44;;;-1.44;100.00
65800;BME280;52544;48.116;11.660;2023-01-28T02:42:03;96009.63;;;-1.44;100.00
65800;BME280;52544;48.116;11.660;2023-01-28T02:44:29;96017.41;;;-1.44;100.00
65800;BME280;52544;48.116;11.660;2023-01-28T02:46:55;96011.31;;;-1.43;100.00
65800;BME280;52544;48.116;11.660;2023-01-28T02:50:21;96017.44;;;-1.45;100.00
65800;BME280;52544;48.116;11.660;2023-01-28T02:52:29;96018.34;;;-1.46;100.00
65800;BME280;52544;48.116;11.660;2023-01-28T02:55:42;96013.16;;;-1.46;100.00
65800;BME280;52544;48.116;11.660;2023-01-28T03:01:00;96010.56;;;-1.46;100.00
65800;BME280;52544;48.116;11.660;2023-01-28T03:06:39;96019.09;;;-1.43;100.00
65800;BME280;52544;48.116;11.660;2023-01-28T03:09:09;96019.94;;;-1.42;100.00
65800;BME280;52544;48.116;11.660;2023-01-28T03:14:50;96019.09;;;-1.43;100.00
65800;BME280;52544;48.116;11.660;2023-01-28T03:17:59;96030.41;;;-1.44;100.00
65800;BME280;52544;48.116;11.660;2023-01-28T03:20:50;96023.47;;;-1.45;100.00
65800;BME280;52544;48.116;11.660;2023-01-28T03:23:53;96027.75;;;-1.42;100.00
65800;BME280;52544;48.116;11.660;2023-01-28T03:26:51;96032.09;;;-1.43;100.00
65800;BME280;52544;48.116;11.660;2023-01-28T03:29:38;96029.56;;;-1.44;100.00
65800;BME280;52544;48.116;11.660;2023-01-28T03:32:24;96032.09;;;-1.43;100.00
65800;BME280;52544;48.116;11.660;2023-01-28T03:35:09;96033.88;;;-1.45;100.00
65800;BME280;52544;48.116;11.660;2023-01-28T03:37:54;96038.34;;;-1.48;100.00
65800;BME280;52544;48.116;11.660;2023-01-28T03:40:19;96034.00;;;-1.48;100.00
65800;BME280;52544;48.116;11.660;2023-01-28T03:42:45;96032.25;;;-1.47;100.00
65800;BME280;52544;48.116;11.660;2023-01-28T03:45:10;96037.38;;;-1.46;100.00
65800;BME280;52544;48.116;11.660;2023-01-28T03:47:36;96032.19;;;-1.46;100.00
65800;BME280;52544;48.116;11.660;2023-01-28T03:50:04;96033.88;;;-1.45;100.00
65800;BME280;52544;48.116;11.660;2023-01-28T03:52:32;96030.41;;;-1.44;100.00
65800;BME280;52544;48.116;11.660;2023-01-28T03:54:58;96033.88;;;-1.45;100.00
65800;BME280;52544;48.116;11.660;2023-01-28T03:57:25;96035.59;;;-1.44;100.00
65800;BME280;52544;48.116;11.660;2023-01-28T03:59:51;96034.63;;;-1.41;100.00
65800;BME280;52544;48.116;11.660;2023-01-28T04:02:19;96039.06;;;-1.45;100.00
65800;BME280;52544;48.116;11.660;2023-01-28T04:04:45;96039.03;;;-1.43;100.00
65800;BME280;52544;48.116;11.660;2023-01-28T04:07:11;96039.81;;;-1.41;100.00
65800;BME280;52544;48.116;11.660;2023-01-28T04:09:38;96038.06;;;-1.41;100.00
65800;BME280;52544;48.116;11.660;2023-01-28T04:12:05;96038.91;;;-1.40;100.00
65800;BME280;52544;48.116;11.660;2023-01-28T04:14:30;96042.31;;;-1.38;100.00
65800;BME280;52544;48.116;11.660;2023-01-28T04:16:56;96044.97;;;-1.40;100.00
65800;BME280;52544;48.116;11.660;2023-01-28T04:19:23;96051.06;;;-1.41;100.00
65800;BME280;52544;48.116;11.660;2023-01-28T04:21:49;96050.22;;;-1.41;100.00
65800;BME280;52544;48.116;11.660;2023-01-28T04:24:15;96051.91;;;-1.40;100.00
65800;BME280;52544;48.116;11.660;2023-01-28T04:26:41;96053.72;;;-1.42;100.00
65800;BME280;52544;48.116;11.660;2023-01-28T04:29:06;96056.38;;;-1.44;100.00
65800;BME280;52544;48.116;11.660;2023-01-28T04:31:33;96055.41;;;-1.41;100.00
65800;BME280;52544;48.116;11.660;2023-01-28T04:33:58;96057.97;;;-1.40;100.00
65800;BME280;52544;48.116;11.660;2023-01-28T04:36:25;96064.00;;;-1.39;100.00
65800;BME280;52544;48.116;11.660;2023-01-28T04:38:50;96059.75;;;-1.42;100.00
65800;BME280;52544;48.116;11.660;2023-01-28T04:41:15;96065.94;;;-1.46;100.00
65800;BME280;52544;48.116;11.660;2023-01-28T04:43:41;96064.09;;;-1.42;100.00
65800;BME280;52544;48.116;11.660;2023-01-28T04:46:06;96065.13;;;-1.48;100.00
65800;BME280;52544;48.116;11.660;2023-01-28T04:48:32;96069.66;;;-1.55;100.00
65800;BME280;52544;48.116;11.660;2023-01-28T04:50:59;96073.81;;;-1.49;100.00
65800;BME280;52544;48.116;11.660;2023-01-28T04:53:25;96072.19;;;-1.53;100.00
65800;BME280;52544;48.116;11.660;2023-01-28T04:55:50;96076.38;;;-1.47;100.00
65800;BME280;52544;48.116;11.660;2023-01-28T04:58:16;96073.94;;;-1.54;100.00
65800;BME280;52544;48.116;11.660;2023-01-28T05:00:41;96082.50;;;-1.50;100.00
65800;BME280;52544;48.116;11.660;2023-01-28T05:03:07;96081.09;;;-1.60;100.00
65800;BME280;52544;48.116;11.660;2023-01-28T05:05:32;96091.47;;;-1.60;100.00
65800;BME280;52544;48.116;11.660;2023-01-28T05:07:58;96087.88;;;-1.56;100.00
65800;BME280;52544;48.116;11.660;2023-01-28T05:10:24;96089.50;;;-1.52;100.00
65800;BME280;52544;48.116;11.660;2023-01-28T05:12:49;96083.53;;;-1.56;100.00
65800;BME280;52544;48.116;11.660;2023-01-28T05:15:16;96092.09;;;-1.52;100.00
65800;BME280;52544;48.116;11.660;2023-01-28T05:17:42;96091.31;;;-1.56;100.00
65800;BME280;52544;48.116;11.660;2023-01-28T05:20:10;96086.06;;;-1.54;100.00
65800;BME280;52544;48.116;11.660;2023-01-28T05:22:35;96087.78;;;-1.53;100.00
65800;BME280;52544;48.116;11.660;2023-01-28T05:25:01;96093.06;;;-1.56;100.00
65800;BME280;52544;48.116;11.660;2023-01-28T05:27:28;96087.66;;;-1.48;100.00
65800;BME280;52544;48.116;11.660;2023-01-28T05:29:53;96094.69;;;-1.52;100.00
65800;BME280;52544;48.116;11.660;2023-01-28T05:32:19;96093.09;;;-1.58;100.00
65800;BME280;52544;48.116;11.660;2023-01-28T05:34:44;96100.72;;;-1.52;100.00
65800;BME280;52544;48.116;11.660;2023-01-28T05:37:10;96109.50;;;-1.56;100.00
65800;BME280;52544;48.116;11.660;2023-01-28T05:39:35;96112.84;;;-1.52;100.00
65800;BME280;52544;48.116;11.660;2023-01-28T05:42:01;96113.72;;;-1.53;100.00
65800;BME280;52544;48.116;11.660;2023-01-28T05:44:26;96106.97;;;-1.57;100.00
65800;BME280;52544;48.116;11.660;2023-01-28T05:46:51;96108.59;;;-1.55;100.00
65800;BME280;52544;48.116;11.660;2023-01-28T05:49:17;96111.13;;;-1.53;100.00
65800;BME280;52544;48.116;11.660;2023-01-28T05:51:42;96115.44;;;-1.52;100.00
65800;BME280;52544;48.116;11.660;2023-01-28T05:54:08;96123.25;;;-1.52;100.00
65800;BME280;52544;48.116;11.660;2023-01-28T05:56:34;96121.56;;;-1.55;100.00
65800;BME280;52544;48.116;11.660;2023-01-28T05:59:01;96126.69;;;-1.52;100.00
65800;BME280;52544;48.116;11.660;2023-01-28T06:01:27;96126.59;;;-1.48;100.00
65800;BME280;52544;48.116;11.660;2023-01-28T06:03:52;96129.22;;;-1.50;100.00
65800;BME280;52544;48.116;11.660;2023-01-28T06:06:18;96132.63;;;-1.48;100.00
65800;BME280;52544;48.116;11.660;2023-01-28T06:08:43;96130.84;;;-1.46;100.00
65800;BME280;52544;48.116;11.660;2023-01-28T06:11:09;96120.66;;;-1.52;100.00
65800;BME280;52544;48.116;11.660;2023-01-28T06:13:34;96132.81;;;-1.54;100.00
65800;BME280;52544;48.116;11.660;2023-01-28T06:16:00;96130.91;;;-1.49;100.00
65800;BME280;52544;48.116;11.660;2023-01-28T06:18:25;96136.09;;;-1.49;100.00
65800;BME280;52544;48.116;11.660;2023-01-28T06:20:51;96138.84;;;-1.54;100.00
65800;BME280;52544;48.116;11.660;2023-01-28T06:23:16;96131.03;;;-1.52;100.00
65800;BME280;52544;48.116;11.660;2023-01-28T06:25:41;96139.66;;;-1.52;100.00
65800;BME280;52544;48.116;11.660;2023-01-28T06:28:07;96154.38;;;-1.52;100.00
65800;BME280;52544;48.116;11.660;2023-01-28T06:30:32;96144.00;;;-1.52;100.00
65800;BME280;52544;48.116;11.660;2023-01-28T06:32:58;96149.09;;;-1.49;100.00
65800;BME280;52544;48.116;11.660;2023-01-28T06:35:23;96146.59;;;-1.52;100.00
65800;BME280;52544;48.116;11.660;2023-01-28T06:37:49;96153.69;;;-1.57;100.00
65800;BME280;52544;48.116;11.660;2023-01-28T06:40:14;96151.97;;;-1.58;100.00
65800;BME280;52544;48.116;11.660;2023-01-28T06:42:40;96151.69;;;-1.49;100.00
65800;BME280;52544;48.116;11.660;2023-01-28T06:45:05;96155.25;;;-1.52;100.00
65800;BME280;52544;48.116;11.660;2023-01-28T06:47:31;96160.56;;;-1.56;100.00
65800;BME280;52544;48.116;11.660;2023-01-28T06:49:56;96161.34;;;-1.54;100.00
65800;BME280;52544;48.116;11.660;2023-01-28T06:52:22;96170.09;;;-1.57;100.00
65800;BME280;52544;48.116;11.660;2023-01-28T06:54:47;96164.22;;;-1.63;100.00
65800;BME280;52544;48.116;11.660;2023-01-28T06:57:12;96160.56;;;-1.56;100.00
65800;BME280;52544;48.116;11.660;2023-01-28T06:59:38;96165.75;;;-1.56;100.00
65800;BME280;52544;48.116;11.660;2023-01-28T07:02:03;96162.25;;;-1.55;100.00
65800;BME280;52544;48.116;11.660;2023-01-28T07:04:30;96167.38;;;-1.52;100.00
65800;BME280;52544;48.116;11.660;2023-01-28T07:06:55;96174.53;;;-1.60;100.00
65800;BME280;52544;48.116;11.660;2023-01-28T07:09:21;96169.34;;;-1.60;100.00
65800;BME280;52544;48.116;11.660;2023-01-28T07:11:46;96173.56;;;-1.58;100.00
65800;BME280;52544;48.116;11.660;2023-01-28T07:14:11;96167.44;;;-1.55;100.00
65800;BME280;52544;48.116;11.660;2023-01-28T07:16:37;96176.03;;;-1.53;100.00
65800;BME280;52544;48.116;11.660;2023-01-28T07:19:02;96180.28;;;-1.51;100.00
65800;BME280;52544;48.116;11.660;2023-01-28T07:21:28;96182.94;;;-1.52;100.00
65800;BME280;52544;48.116;11.660;2023-01-28T07:23:53;96186.31;;;-1.48;100.00
65800;BME280;52544;48.116;11.660;2023-01-28T07:26:18;96190.53;;;-1.46;100.00
65800;BME280;52544;48.116;11.660;2023-01-28T07:28:44;96187.94;;;-1.44;100.00
65800;BME280;52544;48.116;11.660;2023-01-28T07:31:10;96184.44;;;-1.45;100.00
65800;BME280;52544;48.116;11.660;2023-01-28T07:33:35;96192.09;;;-1.40;100.00
65800;BME280;52544;48.116;11.660;2023-01-28T07:36:01;96198.41;;;-1.49;100.00
65800;BME280;52544;48.116;11.660;2023-01-28T07:38:26;96196.66;;;-1.47;100.00
65800;BME280;52544;48.116;11.660;2023-01-28T07:40:51;96198.25;;;-1.43;100.00
65800;BME280;52544;48.116;11.660;2023-01-28T07:43:17;96205.16;;;-1.42;100.00
65800;BME280;52544;48.116;11.660;2023-01-28T07:45:42;96205.84;;;-1.35;100.00
65800;BME280;52544;48.116;11.660;2023-01-28T07:48:10;96208.56;;;-1.40;100.00
65800;BME280;52544;48.116;11.660;2023-01-28T07:50:37;96213.00;;;-1.43;100.00
65800;BME280;52544;48.116;11.660;2023-01-28T07:53:08;96215.59;;;-1.43;100.00
65800;BME280;52544;48.116;11.660;2023-01-28T07:55:35;96219.94;;;-1.45;100.00
65800;BME280;52544;48.116;11.660;2023-01-28T07:58:02;96215.47;;;-1.40;100.00
65800;BME280;52544;48.116;11.660;2023-01-28T08:00:30;96226.69;;;-1.38;100.00
65800;BME280;52544;48.116;11.660;2023-01-28T08:03:01;96227.59;;;-1.39;100.00
65800;BME280;52544;48.116;11.660;2023-01-28T08:05:52;96225.19;;;-1.47;100.00
65800;BME280;52544;48.116;11.660;2023-01-28T08:08:17;96224.22;;;-1.43;100.00
65800;BME280;52544;48.116;11.660;2023-01-28T08:10:43;96236.22;;;-1.39;100.00
65800;BME280;52544;48.116;11.660;2023-01-28T08:13:09;96232.72;;;-1.38;100.00
65800;BME280;52544;48.116;11.660;2023-01-28T08:15:34;96232.81;;;-1.41;100.00
65800;BME280;52544;48.116;11.660;2023-01-28T08:18:02;96239.59;;;-1.35;100.00
65800;BME280;52544;48.116;11.660;2023-01-28T08:20:28;96239.47;;;-1.31;100.00
65800;BME280;52544;48.116;11.660;2023-01-28T08:23:05;96238.63;;;-1.33;100.00
65800;BME280;52544;48.116;11.660;2023-01-28T08:25:32;96242.97;;;-1.32;100.00
65800;BME280;52544;48.116;11.660;2023-01-28T08:27:57;96251.53;;;-1.30;100.00
65800;BME280;52544;48.116;11.660;2023-01-28T08:30:22;96253.25;;;-1.29;100.00
65800;BME280;52544;48.116;11.660;2023-01-28T08:32:48;96254.06;;;-1.27;100.00
65800;BME280;52544;48.116;11.660;2023-01-28T08:35:13;96260.91;;;-1.24;100.00
65800;BME280;52544;48.116;11.660;2023-01-28T08:37:39;96254.84;;;-1.24;100.00
65800;BME280;52544;48.116;11.660;2023-01-28T08:40:04;96255.69;;;-1.24;100.00
65800;BME280;52544;48.116;11.660;2023-01-28T08:42:30;96248.88;;;-1.28;100.00
65800;BME280;52544;48.116;11.660;2023-01-28T08:44:55;96253.09;;;-1.24;100.00
65800;BME280;52544;48.116;11.660;2023-01-28T08:47:21;96259.16;;;-1.23;100.00
65800;BME280;52544;48.116;11.660;2023-01-28T08:49:46;96256.59;;;-1.25;100.00
65800;BME280;52544;48.116;11.660;2023-01-28T08:52:12;96255.53;;;-1.18;100.00
65800;BME280;52544;48.116;11.660;2023-01-28T08:54:37;96261.53;;;-1.16;100.00
65800;BME280;52544;48.116;11.660;2023-01-28T08:57:02;96271.00;;;-1.13;100.00
65800;BME280;52544;48.116;11.660;2023-01-28T08:59:28;96267.41;;;-1.09;100.00
65800;BME280;52544;48.116;11.660;2023-01-28T09:01:53;96259.53;;;-1.06;100.00
65800;BME280;52544;48.116;11.660;2023-01-28T09:04:18;96266.31;;;-1.02;100.00
65800;BME280;52544;48.116;11.660;2023-01-28T09:06:44;96260.19;;;-0.99;100.00
65800;BME280;52544;48.116;11.660;2023-01-28T09:09:09;96267.09;;;-0.98;100.00
65800;BME280;52544;48.116;11.660;2023-01-28T09:11:35;96269.59;;;-0.95;100.00
65800;BME280;52544;48.116;11.660;2023-01-28T09:14:00;96277.34;;;-0.94;100.00
65800;BME280;52544;48.116;11.660;2023-01-28T09:16:25;96278.97;;;-0.90;100.00
65800;BME280;52544;48.116;11.660;2023-01-28T09:18:51;96272.97;;;-0.92;100.00
65800;BME280;52544;48.116;11.660;2023-01-28T09:21:18;96276.28;;;-0.87;100.00
65800;BME280;52544;48.116;11.660;2023-01-28T09:23:43;96271.09;;;-0.87;100.00
65800;BME280;52544;48.116;11.660;2023-01-28T09:26:09;96276.19;;;-0.84;100.00
65800;BME280;52544;48.116;11.660;2023-01-28T09:28:34;96276.34;;;-0.90;100.00
65800;BME280;52544;48.116;11.660;2023-01-28T09:31:05;96278.94;;;-0.88;100.00
65800;BME280;52544;48.116;11.660;2023-01-28T09:33:31;96278.13;;;-0.90;100.00
65800;BME280;52544;48.116;11.660;2023-01-28T09:36:01;96277.25;;;-0.91;100.00
65800;BME280;52544;48.116;11.660;2023-01-28T09:38:28;96281.47;;;-0.87;100.00
65800;BME280;52544;48.116;11.660;2023-01-28T09:40:54;96270.91;;;-0.81;100.00
65800;BME280;52544;48.116;11.660;2023-01-28T09:46:10;96272.50;;;-0.77;100.00
65800;BME280;52544;48.116;11.660;2023-01-28T09:48:40;96268.06;;;-0.73;100.00
65800;BME280;52544;48.116;11.660;2023-01-28T09:54:06;96267.47;;;-0.53;100.00
65800;BME280;52544;48.116;11.660;2023-01-28T09:56:40;96256.78;;;-0.44;100.00
65800;BME280;52544;48.116;11.660;2023-01-28T09:59:27;96262.72;;;-0.40;100.00
65800;BME280;52544;48.116;11.660;2023-01-28T10:02:00;96266.84;;;-0.33;100.00
65800;BME280;52544;48.116;11.660;2023-01-28T10:17:33;96257.66;;;0.08;100.00
65800;BME280;52544;48.116;11.660;2023-01-28T10:20:06;96254.06;;;0.12;100.00
65800;BME280;52544;48.116;11.660;2023-01-28T10:22:39;96253.88;;;0.18;100.00
65800;BME280;52544;48.116;11.660;2023-01-28T10:25:20;96250.38;;;0.19;100.00
65800;BME280;52544;48.116;11.660;2023-01-28T10:27:47;96254.31;;;0.31;100.00
65800;BME280;52544;48.116;11.660;2023-01-28T10:30:22;96256.16;;;0.28;100.00
65800;BME280;52544;48.116;11.660;2023-01-28T10:32:54;96259.41;;;0.34;100.00
65800;BME280;52544;48.116;11.660;2023-01-28T10:35:21;96260.59;;;0.26;98.50
65800;BME280;52544;48.116;11.660;2023-01-28T10:37:48;96262.97;;;0.32;99.41
65800;BME280;52544;48.116;11.660;2023-01-28T10:40:16;96254.84;;;0.41;99.57
65800;BME280;52544;48.116;11.660;2023-01-28T10:42:42;96252.72;;;0.52;99.34
65800;BME280;52544;48.116;11.660;2023-01-28T10:45:22;96248.97;;;0.59;98.42
65800;BME280;52544;48.116;11.660;2023-01-28T10:47:57;96243.28;;;0.96;97.82
65800;BME280;52544;48.116;11.660;2023-01-28T10:50:30;96248.59;;;1.40;94.31
65800;BME280;52544;48.116;11.660;2023-01-28T10:53:01;96247.00;;;1.58;91.08
65800;BME280;52544;48.116;11.660;2023-01-28T10:55:30;96235.78;;;1.56;87.74
65800;BME280;52544;48.116;11.660;2023-01-28T10:57:56;96243.41;;;1.39;87.37
65800;BME280;52544;48.116;11.660;2023-01-28T11:00:25;96255.31;;;1.22;90.29
65800;BME280;52544;48.116;11.660;2023-01-28T11:02:52;96244.91;;;1.22;91.09
65800;BME280;52544;48.116;11.660;2023-01-28T11:05:23;96242.53;;;1.16;90.88
65800;BME280;52544;48.116;11.660;2023-01-28T11:08:13;96240.88;;;1.14;91.69
65800;BME280;52544;48.116;11.660;2023-01-28T11:10:40;96240.38;;;1.04;88.97
65800;BME280;52544;48.116;11.660;2023-01-28T11:13:15;96245.84;;;0.98;91.30
65800;BME280;52544;48.116;11.660;2023-01-28T11:15:49;96235.41;;;0.98;92.94
65800;BME280;52544;48.116;11.660;2023-01-28T11:18:26;96244.34;;;0.91;92.14
65800;BME280;52544;48.116;11.660;2023-01-28T11:21:00;96248.66;;;0.92;91.40
65800;BME280;52544;48.116;11.660;2023-01-28T11:23:32;96241.69;;;0.92;93.16
65800;BME280;52544;48.116;11.660;2023-01-28T11:26:03;96254.78;;;0.91;93.88
65800;BME280;52544;48.116;11.660;2023-01-28T11:28:30;96249.34;;;0.97;94.04
65800;BME280;52544;48.116;11.660;2023-01-28T11:30:57;96238.72;;;1.02;93.75
65800;BME280;52544;48.116;11.660;2023-01-28T11:33:36;96252.06;;;0.94;91.57
65800;BME280;52544;48.116;11.660;2023-01-28T11:36:23;96259.41;;;1.06;92.69
65800;BME280;52544;48.116;11.660;2023-01-28T11:43:55;96260.59;;;0.97;94.64
65800;BME280;52544;48.116;11.660;2023-01-28T11:46:40;96261.34;;;1.01;93.17
65800;BME280;52544;48.116;11.660;2023-01-28T11:49:13;96251.84;;;1.00;93.72
65800;BME280;52544;48.116;11.660;2023-01-28T11:54:36;96245.84;;;0.98;92.47
65800;BME280;52544;48.116;11.660;2023-01-28T11:57:25;96240.63;;;0.98;91.27
65800;BME280;52544;48.116;11.660;2023-01-28T12:00:21;96245.84;;;0.98;91.63
65800;BME280;52544;48.116;11.660;2023-01-28T12:03:04;96240.00;;;0.91;92.20
65800;BME280;52544;48.116;11.660;2023-01-28T12:05:45;96233.13;;;0.89;92.23
65800;BME280;52544;48.116;11.660;2023-01-28T12:08:23;96240.94;;;0.89;93.14
65800;BME280;52544;48.116;11.660;2023-01-28T12:13:50;96246.16;;;0.89;91.50
65800;BME280;52544;48.116;11.660;2023-01-28T12:16:22;96244.25;;;0.94;89.32
65800;BME280;52544;48.116;11.660;2023-01-28T12:19:13;96248.44;;;0.98;89.29
65800;BME280;52544;48.116;11.660;2023-01-28T12:27:40;96243.56;;;1.12;89.98
65800;BME280;52544;48.116;11.660;2023-01-28T12:41:07;96238.41;;;1.11;90.42
65800;BME280;52544;48.116;11.660;2023-01-28T12:43:46;96240.16;;;1.10;90.20
65800;BME280;52544;48.116;11.660;2023-01-28T12:51:56;96238.47;;;1.31;89.44
65800;BME280;52544;48.116;11.660;2023-01-28T12:54:34;96251.47;;;1.33;88.42
65800;BME280;52544;48.116;11.660;2023-01-28T12:57:02;96246.38;;;1.30;88.74
65800;BME280;52544;48.116;11.660;2023-01-28T12:59:31;96241.91;;;1.33;88.87
65800;BME280;52544;48.116;11.660;2023-01-28T13:07:17;96250.31;;;1.40;86.98
65800;BME280;52544;48.116;11.660;2023-01-28T13:09:52;96244.31;;;1.38;86.91
65800;BME280;52544;48.116;11.660;2023-01-28T13:12:19;96243.66;;;1.33;86.46
65800;BME280;52544;48.116;11.660;2023-01-28T13:14:46;96245.28;;;1.35;87.28
65800;BME280;52544;48.116;11.660;2023-01-28T13:17:30;96246.72;;;1.20;88.82
65800;BME280;52544;48.116;11.660;2023-01-28T13:19:57;96258.34;;;1.12;89.38
65800;BME280;52544;48.116;11.660;2023-01-28T13:22:29;96253.69;;;0.96;89.97
65800;BME280;52544;48.116;11.660;2023-01-28T13:24:55;96252.84;;;0.96;90.43
65800;BME280;52544;48.116;11.660;2023-01-28T13:27:23;96253.81;;;0.93;88.61
65800;BME280;52544;48.116;11.660;2023-01-28T13:30:00;96252.13;;;0.92;88.47
65800;BME280;52544;48.116;11.660;2023-01-28T13:32:31;96270.31;;;0.94;89.19
65800;BME280;52544;48.116;11.660;2023-01-28T13:35:23;96267.16;;;0.86;90.20
65800;BME280;52544;48.116;11.660;2023-01-28T13:37:51;96265.31;;;0.88;91.24
65800;BME280;52544;48.116;11.660;2023-01-28T13:40:23;96264.63;;;0.83;91.71
65800;BME280;52544;48.116;11.660;2023-01-28T13:43:02;96269.16;;;0.78;93.28
65800;BME280;52544;48.116;11.660;2023-01-28T13:45:27;96266.25;;;0.62;93.80
65800;BME280;52544;48.116;11.660;2023-01-28T13:47:59;96280.19;;;0.61;93.60
65800;BME280;52544;48.116;11.660;2023-01-28T13:50:33;96277.59;;;0.61;92.88
65800;BME280;52544;48.116;11.660;2023-01-28T13:53:06;96286.25;;;0.61;94.30
65800;BME280;52544;48.116;11.660;2023-01-28T13:55:41;96274.50;;;0.49;95.06
65800;BME280;52544;48.116;11.660;2023-01-28T14:01:25;96286.00;;;0.44;93.22
65800;BME280;52544;48.116;11.660;2023-01-28T14:07:24;96293.22;;;0.36;94.79
65800;BME280;52544;48.116;11.660;2023-01-28T14:12:23;96294.16;;;0.33;95.72
65800;BME280;52544;48.116;11.660;2023-01-28T14:17:49;96298.34;;;0.37;98.32
65800;BME280;52544;48.116;11.660;2023-01-28T14:20:25;96292.53;;;0.31;98.34
65800;BME280;52544;48.116;11.660;2023-01-28T14:22:58;96295.13;;;0.31;96.85
65800;BME280;52544;48.116;11.660;2023-01-28T14:28:00;96293.22;;;0.36;97.76